createdAt,value
2018-10-05T00:00:42.049Z,99.90
2018-10-05T00:03:10.103Z,99.90
2018-10-05T00:05:38.203Z,99.90
2018-10-05T00:08:06.276Z,99.90
2018-10-05T00:10:34.350Z,99.90
2018-10-05T00:13:02.465Z,99.90
2018-10-05T00:15:30.510Z,99.90
2018-10-05T00:17:58.568Z,99.90
2018-10-05T00:20:26.691Z,99.90
2018-10-05T00:22:54.708Z,99.90
2018-10-05T00:25:22.766Z,99.90
2018-10-05T00:27:50.818Z,99.90
2018-10-05T00:30:18.903Z,99.90
2018-10-05T00:32:47.035Z,99.90
2018-10-05T00:35:15.098Z,99.90
2018-10-05T00:37:43.182Z,99.90
2018-10-05T00:40:11.269Z,99.90
2018-10-05T00:42:39.364Z,99.90
2018-10-05T00:45:06.734Z,99.90
2018-10-05T00:47:34.128Z,99.90
2018-10-05T00:50:01.537Z,99.90
2018-10-05T00:52:28.961Z,99.90
2018-10-05T00:54:57.055Z,99.90
2018-10-05T00:57:25.163Z,99.90
2018-10-05T00:59:53.273Z,99.90
2018-10-05T01:02:21.334Z,99.90
2018-10-05T01:04:49.421Z,99.90
2018-10-05T01:07:17.490Z,99.90
2018-10-05T01:09:45.535Z,99.90
2018-10-05T01:12:12.934Z,99.90
2018-10-05T01:14:40.354Z,99.90
2018-10-05T01:17:07.754Z,99.90
2018-10-05T01:19:35.610Z,99.90
2018-10-05T01:22:03.018Z,99.90
2018-10-05T01:24:30.422Z,99.90
2018-10-05T01:26:57.814Z,99.90
2018-10-05T01:29:25.243Z,99.90
2018-10-05T01:31:52.635Z,99.90
2018-10-05T01:34:20.053Z,99.90
2018-10-05T01:36:47.454Z,99.90
2018-10-05T01:39:14.862Z,99.90
2018-10-05T01:41:42.264Z,99.90
2018-10-05T01:44:09.665Z,99.90
2018-10-05T01:46:37.066Z,99.90
2018-10-05T01:49:04.513Z,99.90
2018-10-05T01:51:34.918Z,99.90
2018-10-05T01:54:03.525Z,99.90
2018-10-05T01:56:31.489Z,99.90
2018-10-05T01:58:58.882Z,99.90
2018-10-05T02:01:26.302Z,99.90
2018-10-05T02:03:53.731Z,99.90
2018-10-05T02:06:21.134Z,99.90
2018-10-05T02:08:48.565Z,99.90
2018-10-05T02:11:15.983Z,99.90
2018-10-05T02:13:43.387Z,99.90
2018-10-05T02:16:10.786Z,99.90
2018-10-05T02:18:38.201Z,99.90
2018-10-05T02:21:05.798Z,99.90
2018-10-05T02:23:33.225Z,99.90
2018-10-05T02:26:00.643Z,99.90
2018-10-05T02:28:28.025Z,99.90
2018-10-05T02:30:55.437Z,99.90
2018-10-05T02:33:22.851Z,99.90
2018-10-05T02:35:50.617Z,99.90
2018-10-05T02:38:17.993Z,99.90
2018-10-05T02:40:45.429Z,99.90
2018-10-05T02:43:12.823Z,99.90
2018-10-05T02:45:40.209Z,99.90
2018-10-05T02:48:07.590Z,99.90
2018-10-05T02:50:34.986Z,99.90
2018-10-05T02:53:02.427Z,99.90
2018-10-05T02:55:29.823Z,99.90
2018-10-05T02:57:57.197Z,99.90
2018-10-05T03:00:30.285Z,99.90
2018-10-05T03:02:57.669Z,99.90
2018-10-05T03:05:25.085Z,99.90
2018-10-05T03:07:52.629Z,99.90
2018-10-05T03:10:20.019Z,99.90
2018-10-05T03:12:47.458Z,99.90
2018-10-05T03:15:14.871Z,99.90
2018-10-05T03:17:42.272Z,99.90
2018-10-05T03:20:09.681Z,99.90
2018-10-05T03:22:37.110Z,99.90
2018-10-05T03:25:04.685Z,99.90
2018-10-05T03:27:32.102Z,99.90
2018-10-05T03:29:59.502Z,99.90
2018-10-05T03:32:26.930Z,99.90
2018-10-05T03:34:54.326Z,99.90
2018-10-05T03:37:21.722Z,99.90
2018-10-05T03:39:49.140Z,99.90
2018-10-05T03:42:16.526Z,99.90
2018-10-05T03:44:43.935Z,99.90
2018-10-05T03:47:11.337Z,99.90
2018-10-05T03:49:38.740Z,99.90
2018-10-05T03:52:06.165Z,99.90
2018-10-05T03:54:33.566Z,99.90
2018-10-05T03:57:00.973Z,99.90
2018-10-05T03:59:28.361Z,99.90
2018-10-05T04:01:55.813Z,99.90
2018-10-05T04:04:23.210Z,99.90
2018-10-05T04:06:50.597Z,99.90
2018-10-05T04:09:18.014Z,99.90
2018-10-05T04:11:45.466Z,99.90
2018-10-05T04:14:12.897Z,99.90
2018-10-05T04:16:40.289Z,99.90
2018-10-05T04:19:07.705Z,99.90
2018-10-05T04:21:35.102Z,99.90
2018-10-05T04:24:02.494Z,99.90
2018-10-05T04:26:29.902Z,99.90
2018-10-05T04:28:57.298Z,99.90
2018-10-05T04:31:24.719Z,99.90
2018-10-05T04:33:52.143Z,99.90
2018-10-05T04:36:19.547Z,99.90
2018-10-05T04:38:46.950Z,99.90
2018-10-05T04:41:14.372Z,99.90
2018-10-05T04:43:41.750Z,99.90
2018-10-05T04:46:09.178Z,99.90
2018-10-05T04:48:36.589Z,99.90
2018-10-05T04:51:03.986Z,99.90
2018-10-05T04:53:31.398Z,99.90
2018-10-05T04:55:58.802Z,99.90
2018-10-05T04:58:26.203Z,99.90
2018-10-05T05:00:53.630Z,99.90
2018-10-05T05:03:21.269Z,99.90
2018-10-05T05:05:48.673Z,99.90
2018-10-05T05:08:16.113Z,99.90
2018-10-05T05:10:43.493Z,99.90
2018-10-05T05:13:10.886Z,99.90
2018-10-05T05:15:38.290Z,99.90
2018-10-05T05:18:05.678Z,99.90
2018-10-05T05:20:33.066Z,99.90
2018-10-05T05:23:00.798Z,99.90
2018-10-05T05:25:28.177Z,99.90
2018-10-05T05:27:55.574Z,99.90
2018-10-05T05:30:22.994Z,99.90
2018-10-05T05:32:50.398Z,99.90
2018-10-05T05:35:17.807Z,99.90
2018-10-05T05:37:45.193Z,99.90
2018-10-05T05:40:12.657Z,99.90
2018-10-05T05:42:40.022Z,99.90
2018-10-05T05:45:07.410Z,99.90
2018-10-05T05:47:34.794Z,99.90
2018-10-05T05:50:02.183Z,99.90
2018-10-05T05:52:29.587Z,99.90
2018-10-05T05:54:56.991Z,99.90
2018-10-05T05:57:24.383Z,99.90
2018-10-05T05:59:51.770Z,99.90
2018-10-05T06:02:19.189Z,99.90
2018-10-05T06:04:46.582Z,99.90
2018-10-05T06:07:14.134Z,99.90
2018-10-05T06:09:41.582Z,99.90
2018-10-05T06:12:08.974Z,99.90
2018-10-05T06:14:37.045Z,99.90
2018-10-05T06:17:05.108Z,99.90
2018-10-05T06:19:32.502Z,99.90
2018-10-05T06:22:00.133Z,99.90
2018-10-05T06:24:27.291Z,99.90
2018-10-05T06:26:54.703Z,99.90
2018-10-05T06:29:22.090Z,99.90
2018-10-05T06:31:49.479Z,99.90
2018-10-05T06:34:17.567Z,99.90
2018-10-05T06:36:45.623Z,99.90
2018-10-05T06:39:13.760Z,99.90
2018-10-05T06:41:41.061Z,99.90
2018-10-05T06:44:09.210Z,99.90
2018-10-05T06:46:36.627Z,99.90
2018-10-05T06:49:04.015Z,99.90
2018-10-05T06:51:32.074Z,99.90
2018-10-05T06:54:00.135Z,99.90
2018-10-05T06:56:28.175Z,99.90
2018-10-05T06:58:56.274Z,99.90
2018-10-05T07:01:23.894Z,99.90
2018-10-05T07:03:51.950Z,99.90
2018-10-05T07:06:19.356Z,99.90
2018-10-05T07:08:46.782Z,99.90
2018-10-05T07:11:14.189Z,99.90
2018-10-05T07:13:41.577Z,99.90
2018-10-05T07:16:09.639Z,99.90
2018-10-05T07:18:37.079Z,99.90
2018-10-05T07:21:04.482Z,99.90
2018-10-05T07:23:31.870Z,99.90
2018-10-05T07:25:59.263Z,99.90
2018-10-05T07:28:26.787Z,99.90
2018-10-05T07:30:54.090Z,99.90
2018-10-05T07:33:21.488Z,99.90
2018-10-05T07:35:48.882Z,99.90
2018-10-05T07:38:16.330Z,99.90
2018-10-05T07:40:44.575Z,99.90
2018-10-05T07:43:11.966Z,99.90
2018-10-05T07:45:39.370Z,99.90
2018-10-05T07:48:06.758Z,99.90
2018-10-05T07:50:34.167Z,99.90
2018-10-05T07:53:01.591Z,99.90
2018-10-05T07:55:29.006Z,99.90
2018-10-05T07:57:56.521Z,99.90
2018-10-05T08:00:23.817Z,99.90
2018-10-05T08:02:51.226Z,99.90
2018-10-05T08:05:18.635Z,99.90
2018-10-05T08:07:46.042Z,99.90
2018-10-05T08:10:13.430Z,99.90
2018-10-05T08:12:40.821Z,99.90
2018-10-05T08:15:08.217Z,99.90
2018-10-05T08:17:35.774Z,99.90
2018-10-05T08:20:03.181Z,99.90
2018-10-05T08:22:30.574Z,99.90
2018-10-05T08:24:58.013Z,99.90
2018-10-05T08:27:25.418Z,99.90
2018-10-05T08:29:52.822Z,99.90
2018-10-05T08:32:20.209Z,99.90
2018-10-05T08:34:47.654Z,99.90
2018-10-05T08:37:15.039Z,99.90
2018-10-05T08:39:42.492Z,99.90
2018-10-05T08:42:09.850Z,99.90
2018-10-05T08:44:37.282Z,99.90
2018-10-05T08:47:04.814Z,99.90
2018-10-05T08:49:32.213Z,99.90
2018-10-05T08:51:59.725Z,99.90
2018-10-05T08:54:27.010Z,99.90
2018-10-05T08:56:55.078Z,99.90
2018-10-05T08:59:23.130Z,99.90
2018-10-05T09:01:51.195Z,99.90
2018-10-05T09:04:19.274Z,99.90
2018-10-05T09:06:46.682Z,99.90
2018-10-05T09:09:14.091Z,99.90
2018-10-05T09:11:41.501Z,99.90
2018-10-05T09:14:08.914Z,99.90
2018-10-05T09:16:36.310Z,99.90
2018-10-05T09:19:03.718Z,99.90
2018-10-05T09:21:31.130Z,99.90
2018-10-05T09:23:58.534Z,99.90
2018-10-05T09:26:25.943Z,99.90
2018-10-05T09:28:53.334Z,99.90
2018-10-05T09:31:20.747Z,99.90
2018-10-05T09:33:48.146Z,99.90
2018-10-05T09:36:15.545Z,99.90
2018-10-05T09:38:42.935Z,99.90
2018-10-05T09:41:10.334Z,99.90
2018-10-05T09:43:37.742Z,99.90
2018-10-05T09:46:05.138Z,99.90
2018-10-05T09:48:32.544Z,99.90
2018-10-05T09:50:59.946Z,99.90
2018-10-05T09:53:27.341Z,99.90
2018-10-05T09:55:54.735Z,99.90
2018-10-05T09:58:22.154Z,99.90
2018-10-05T10:00:54.990Z,99.90
2018-10-05T10:03:27.934Z,99.90
2018-10-05T10:05:55.315Z,99.90
2018-10-05T10:08:22.854Z,99.90
2018-10-05T10:10:50.117Z,99.90
2018-10-05T10:13:17.508Z,99.90
2018-10-05T10:15:44.906Z,99.90
2018-10-05T10:18:12.326Z,99.90
2018-10-05T10:20:39.745Z,99.90
2018-10-05T10:23:07.150Z,99.90
2018-10-05T10:25:34.542Z,99.90
2018-10-05T10:28:01.995Z,99.90
2018-10-05T10:30:29.357Z,99.90
2018-10-05T10:32:56.757Z,99.90
2018-10-05T10:35:24.170Z,99.90
2018-10-05T10:37:51.561Z,99.90
2018-10-05T10:40:18.965Z,99.90
2018-10-05T10:42:46.430Z,99.90
2018-10-05T10:45:13.751Z,99.90
2018-10-05T10:47:41.156Z,99.90
2018-10-05T10:50:08.542Z,99.90
2018-10-05T10:52:35.958Z,99.90
2018-10-05T10:55:03.421Z,99.90
2018-10-05T10:57:30.766Z,99.90
2018-10-05T10:59:58.170Z,99.90
2018-10-05T11:02:25.565Z,99.90
2018-10-05T11:04:52.981Z,99.90
2018-10-05T11:07:20.377Z,99.90
2018-10-05T11:09:47.770Z,99.90
2018-10-05T11:12:15.168Z,99.90
2018-10-05T11:14:42.607Z,99.90
2018-10-05T11:17:10.155Z,99.90
2018-10-05T11:19:37.403Z,99.90
2018-10-05T11:22:05.700Z,99.90
2018-10-05T11:24:33.106Z,99.90
2018-10-05T11:27:00.534Z,99.90
2018-10-05T11:29:27.965Z,99.70
2018-10-05T11:31:55.362Z,99.90
2018-10-05T11:34:22.767Z,98.10
2018-10-05T11:36:50.168Z,98.40
2018-10-05T11:39:17.569Z,97.50
2018-10-05T11:41:44.966Z,96.20
2018-10-05T11:44:12.362Z,96.30
2018-10-05T11:46:39.762Z,96.10
2018-10-05T11:49:07.162Z,95.60
2018-10-05T11:51:34.553Z,95.70
2018-10-05T11:54:01.955Z,94.80
2018-10-05T11:56:29.360Z,94.00
2018-10-05T11:58:56.835Z,93.20
2018-10-05T12:01:24.339Z,91.80
2018-10-05T12:03:52.014Z,91.90
2018-10-05T12:06:19.410Z,91.20
2018-10-05T12:08:46.872Z,90.40
2018-10-05T12:11:14.263Z,90.80
2018-10-05T12:13:41.694Z,90.80
2018-10-05T12:16:09.049Z,90.20
2018-10-05T12:18:36.437Z,87.90
2018-10-05T12:21:03.846Z,87.80
2018-10-05T12:23:31.242Z,90.70
2018-10-05T12:25:58.658Z,89.90
2018-10-05T12:28:26.046Z,88.80
2018-10-05T12:30:53.433Z,83.90
2018-10-05T12:33:20.894Z,83.80
2018-10-05T12:35:48.255Z,84.70
2018-10-05T12:38:15.646Z,82.80
2018-10-05T12:40:43.054Z,80.00
2018-10-05T12:43:10.441Z,80.60
2018-10-05T12:45:37.846Z,82.30
2018-10-05T12:48:05.253Z,80.60
2018-10-05T12:50:32.674Z,78.00
2018-10-05T12:53:00.060Z,79.40
2018-10-05T12:55:27.478Z,78.20
2018-10-05T12:57:54.861Z,79.50
2018-10-05T13:00:22.257Z,76.80
2018-10-05T13:02:49.734Z,76.50
2018-10-05T13:05:17.140Z,77.70
2018-10-05T13:07:44.535Z,74.60
2018-10-05T13:10:11.930Z,76.70
2018-10-05T13:12:39.324Z,78.40
2018-10-05T13:15:06.799Z,79.00
2018-10-05T13:17:34.173Z,78.20
2018-10-05T13:20:01.576Z,77.40
2018-10-05T13:22:28.983Z,78.30
2018-10-05T13:24:56.366Z,76.60
2018-10-05T13:27:23.757Z,76.00
2018-10-05T13:29:51.163Z,73.50
2018-10-05T13:32:18.561Z,73.90
2018-10-05T13:34:45.949Z,71.90
2018-10-05T13:37:13.415Z,69.90
2018-10-05T13:39:40.746Z,69.60
2018-10-05T13:42:08.200Z,69.40
2018-10-05T13:44:35.534Z,69.50
2018-10-05T13:47:03.001Z,68.20
2018-10-05T13:49:30.386Z,66.80
2018-10-05T13:51:57.780Z,68.80
2018-10-05T13:54:25.177Z,69.30
2018-10-05T13:56:52.582Z,68.60
2018-10-05T13:59:19.990Z,68.70
2018-10-05T14:01:47.387Z,70.00
2018-10-05T14:04:14.795Z,66.30
2018-10-05T14:06:42.193Z,66.40
2018-10-05T14:09:10.394Z,66.40
2018-10-05T14:11:37.954Z,66.10
2018-10-05T14:14:05.616Z,67.70
2018-10-05T14:16:33.018Z,69.20
2018-10-05T14:19:00.492Z,66.10
2018-10-05T14:21:27.830Z,65.60
2018-10-05T14:23:55.222Z,66.10
2018-10-05T14:26:22.621Z,68.80
2018-10-05T14:28:50.015Z,68.70
2018-10-05T14:31:17.419Z,67.60
2018-10-05T14:33:44.877Z,68.40
2018-10-05T14:36:12.206Z,66.70
2018-10-05T14:38:39.610Z,66.90
2018-10-05T14:41:07.045Z,67.00
2018-10-05T14:43:34.455Z,65.40
2018-10-05T14:46:01.859Z,64.40
2018-10-05T14:48:29.233Z,66.50
2018-10-05T14:50:56.644Z,68.00
2018-10-05T14:53:24.050Z,66.20
2018-10-05T14:55:51.574Z,66.70
2018-10-05T14:58:18.957Z,67.70
2018-10-05T15:00:46.350Z,68.00
2018-10-05T15:03:13.741Z,66.30
2018-10-05T15:05:41.140Z,64.80
2018-10-05T15:08:08.531Z,67.50
2018-10-05T15:10:35.939Z,68.60
2018-10-05T15:13:03.327Z,69.50
2018-10-05T15:15:30.742Z,69.70
2018-10-05T15:17:58.146Z,66.40
2018-10-05T15:20:25.541Z,66.80
2018-10-05T15:22:52.949Z,68.30
2018-10-05T15:25:20.402Z,69.40
2018-10-05T15:27:47.749Z,69.60
2018-10-05T15:30:15.142Z,69.60
2018-10-05T15:32:42.632Z,70.10
2018-10-05T15:35:09.918Z,69.70
2018-10-05T15:37:37.322Z,69.40
2018-10-05T15:40:04.715Z,68.40
2018-10-05T15:42:32.110Z,69.00
2018-10-05T15:44:59.502Z,70.20
2018-10-05T15:47:26.894Z,69.00
2018-10-05T15:49:54.283Z,69.20
2018-10-05T15:52:21.678Z,68.70
2018-10-05T15:54:49.068Z,69.90
2018-10-05T15:57:16.464Z,69.10
2018-10-05T15:59:43.849Z,71.30
2018-10-05T16:02:11.242Z,72.60
2018-10-05T16:04:38.625Z,75.20
2018-10-05T16:07:06.025Z,76.40
2018-10-05T16:09:33.425Z,76.10
2018-10-05T16:12:00.824Z,79.60
2018-10-05T16:14:28.254Z,79.00
2018-10-05T16:16:55.626Z,80.40
2018-10-05T16:19:23.018Z,83.50
2018-10-05T16:21:50.403Z,84.40
2018-10-05T16:24:27.747Z,85.70
2018-10-05T16:26:55.106Z,85.20
2018-10-05T16:29:22.503Z,86.80
2018-10-05T16:31:49.922Z,88.50
2018-10-05T16:34:17.308Z,88.40
2018-10-05T16:36:44.730Z,89.70
2018-10-05T16:39:12.783Z,90.10
2018-10-05T16:41:40.223Z,91.60
2018-10-05T16:44:07.621Z,91.40
2018-10-05T16:46:37.034Z,91.10
2018-10-05T16:49:05.230Z,91.20
2018-10-05T16:51:32.622Z,92.50
2018-10-05T16:54:00.018Z,92.40
2018-10-05T16:56:27.405Z,92.40
2018-10-05T16:58:54.797Z,93.10
2018-10-05T17:01:22.169Z,94.30
2018-10-05T17:03:49.617Z,93.80
2018-10-05T17:06:16.966Z,94.40
2018-10-05T17:08:47.394Z,95.40
2018-10-05T17:11:14.866Z,95.40
2018-10-05T17:13:42.269Z,96.90
2018-10-05T17:16:09.669Z,96.50
2018-10-05T17:18:37.072Z,97.00
2018-10-05T17:21:04.458Z,98.00
2018-10-05T17:23:31.879Z,98.60
2018-10-05T17:25:59.490Z,98.10
2018-10-05T17:28:26.890Z,98.30
2018-10-05T17:30:54.298Z,98.60
2018-10-05T17:33:21.722Z,98.20
2018-10-05T17:35:49.117Z,98.60
2018-10-05T17:38:16.518Z,99.10
2018-10-05T17:40:43.926Z,99.30
2018-10-05T17:43:11.328Z,99.90
2018-10-05T17:45:38.718Z,99.90
2018-10-05T17:48:06.126Z,99.90
2018-10-05T17:50:33.523Z,99.90
2018-10-05T17:53:00.933Z,99.90
2018-10-05T17:55:28.349Z,99.90
2018-10-05T17:57:55.747Z,99.90
2018-10-05T18:00:23.129Z,99.90
2018-10-05T18:02:50.518Z,99.90
2018-10-05T18:05:17.942Z,99.90
2018-10-05T18:07:45.370Z,99.90
2018-10-05T18:10:12.795Z,99.90
2018-10-05T18:12:40.208Z,99.90
2018-10-05T18:15:07.623Z,99.90
2018-10-05T18:17:35.201Z,99.90
2018-10-05T18:20:02.842Z,99.90
2018-10-05T18:22:30.225Z,99.90
2018-10-05T18:24:57.614Z,99.90
2018-10-05T18:27:25.028Z,99.90
2018-10-05T18:29:52.421Z,99.90
2018-10-05T18:32:19.815Z,99.90
2018-10-05T18:34:47.202Z,99.90
2018-10-05T18:37:14.598Z,99.90
2018-10-05T18:39:42.031Z,99.90
2018-10-05T18:42:09.447Z,99.90
2018-10-05T18:44:36.839Z,99.90
2018-10-05T18:47:04.711Z,99.90
2018-10-05T18:49:32.182Z,99.90
2018-10-05T18:51:59.599Z,99.90
2018-10-05T18:54:27.077Z,99.90
2018-10-05T18:57:00.159Z,99.90
2018-10-05T18:59:27.577Z,99.90
2018-10-05T19:01:54.975Z,99.90
2018-10-05T19:04:22.453Z,99.90
2018-10-05T19:06:49.970Z,99.90
2018-10-05T19:09:17.410Z,99.90
2018-10-05T19:11:44.886Z,99.90
2018-10-05T19:14:12.389Z,99.90
2018-10-05T19:16:39.824Z,99.90
2018-10-05T19:19:07.282Z,99.90
2018-10-05T19:21:34.742Z,99.90
2018-10-05T19:24:02.146Z,99.90
2018-10-05T19:26:29.746Z,99.90
2018-10-05T19:28:56.998Z,99.90
2018-10-05T19:31:24.443Z,99.90
2018-10-05T19:33:51.846Z,99.90
2018-10-05T19:36:19.293Z,99.90
2018-10-05T19:38:46.658Z,99.90
2018-10-05T19:41:14.055Z,99.90
2018-10-05T19:43:41.482Z,99.90
2018-10-05T19:46:08.919Z,99.90
2018-10-05T19:48:36.987Z,99.90
2018-10-05T19:51:05.164Z,99.90
2018-10-05T19:53:33.279Z,99.90
2018-10-05T19:56:01.335Z,99.90
2018-10-05T19:58:29.494Z,99.90
2018-10-05T20:00:57.563Z,99.90
2018-10-05T20:03:25.731Z,99.90
2018-10-05T20:05:53.919Z,99.90
2018-10-05T20:08:22.017Z,99.90
2018-10-05T20:10:50.093Z,99.90
2018-10-05T20:13:18.155Z,99.90
2018-10-05T20:15:46.235Z,99.90
2018-10-05T20:18:14.393Z,99.90
2018-10-05T20:20:42.362Z,99.90
2018-10-05T20:23:10.458Z,99.90
2018-10-05T20:25:38.556Z,99.90
2018-10-05T20:28:06.621Z,99.90
2018-10-05T20:30:34.727Z,99.90
2018-10-05T20:33:02.776Z,99.90
2018-10-05T20:35:30.847Z,99.90
2018-10-05T20:37:58.886Z,99.90
2018-10-05T20:40:27.031Z,99.90
2018-10-05T20:42:55.088Z,99.90
2018-10-05T20:45:23.154Z,99.90
2018-10-05T20:47:51.559Z,99.90
2018-10-05T20:50:19.618Z,99.90
2018-10-05T20:52:47.699Z,99.90
2018-10-05T20:55:15.753Z,99.90
2018-10-05T20:57:43.810Z,99.90
2018-10-05T21:00:11.876Z,99.90
2018-10-05T21:02:40.212Z,99.90
2018-10-05T21:05:08.310Z,99.90
2018-10-05T21:07:36.540Z,99.90
2018-10-05T21:10:04.614Z,99.90
2018-10-05T21:12:32.693Z,99.90
2018-10-05T21:15:00.776Z,99.90
2018-10-05T21:17:28.810Z,99.90
2018-10-05T21:19:56.930Z,99.90
2018-10-05T21:22:24.991Z,99.90
2018-10-05T21:24:53.068Z,99.90
2018-10-05T21:27:21.192Z,99.90
2018-10-05T21:29:49.247Z,99.90
2018-10-05T21:32:17.294Z,99.90
2018-10-05T21:34:45.367Z,99.90
2018-10-05T21:37:13.443Z,99.90
2018-10-05T21:39:41.514Z,99.90
2018-10-05T21:42:09.607Z,99.90
2018-10-05T21:44:37.670Z,99.90
2018-10-05T21:47:05.844Z,99.90
2018-10-05T21:49:33.923Z,99.90
2018-10-05T21:52:01.992Z,99.90
2018-10-05T21:54:30.056Z,99.90
2018-10-05T21:56:58.135Z,99.90
2018-10-05T21:59:26.199Z,99.90
2018-10-05T22:01:53.602Z,99.90
2018-10-05T22:04:20.985Z,99.90
2018-10-05T22:06:48.385Z,99.90
2018-10-05T22:09:15.782Z,99.90
2018-10-05T22:11:43.198Z,99.90
2018-10-05T22:14:10.590Z,99.90
2018-10-05T22:16:38.010Z,99.90
2018-10-05T22:19:05.686Z,99.90
2018-10-05T22:21:33.124Z,99.90
2018-10-05T22:24:00.531Z,99.90
2018-10-05T22:26:27.955Z,99.90
2018-10-05T22:28:55.341Z,99.90
2018-10-05T22:31:23.409Z,99.90
2018-10-05T22:33:51.513Z,99.90
2018-10-05T22:36:19.566Z,99.90
2018-10-05T22:38:47.830Z,99.90
2018-10-05T22:41:15.900Z,99.90
2018-10-05T22:43:43.978Z,99.90
2018-10-05T22:46:12.047Z,99.90
2018-10-05T22:48:40.130Z,99.90
2018-10-05T22:51:08.199Z,99.90
2018-10-05T22:53:35.610Z,99.90
2018-10-05T22:56:03.052Z,99.90
2018-10-05T22:58:31.127Z,99.90
2018-10-05T23:00:59.215Z,99.90
2018-10-05T23:03:27.296Z,99.90
2018-10-05T23:05:55.346Z,99.90
2018-10-05T23:08:23.427Z,99.90
2018-10-05T23:10:51.487Z,99.90
2018-10-05T23:13:19.548Z,99.90
2018-10-05T23:15:47.626Z,99.90
2018-10-05T23:18:15.694Z,99.90
2018-10-05T23:20:43.771Z,99.90
2018-10-05T23:23:11.847Z,99.90
2018-10-05T23:25:39.910Z,99.90
2018-10-05T23:28:07.320Z,99.90
2018-10-05T23:30:35.398Z,99.90
2018-10-05T23:33:02.801Z,99.90
2018-10-05T23:35:30.870Z,99.90
2018-10-05T23:37:58.946Z,99.90
2018-10-05T23:40:27.010Z,99.90
2018-10-05T23:42:55.082Z,99.90
2018-10-05T23:45:23.158Z,99.90
2018-10-05T23:47:51.234Z,99.90
2018-10-05T23:50:19.319Z,99.90
2018-10-05T23:52:50.635Z,99.90
2018-10-05T23:55:18.202Z,99.90
2018-10-05T23:57:46.064Z,99.90
